sensor_id;sensor_type;location;lat;lon;timestamp;pressure;altitude;pressure_sealevel;temperature;humidity
49102;BME280;34913;47.520;19.186;2022-10-16T00:01:11;100395.94;;;14.46;72.10
49102;BME280;34913;47.520;19.186;2022-10-16T00:03:41;100382.97;;;14.42;71.95
49102;BME280;34913;47.520;19.186;2022-10-16T00:06:07;100381.75;;;14.46;72.15
49102;BME280;34913;47.520;19.186;2022-10-16T00:08:33;100381.84;;;14.44;72.19
49102;BME280;34913;47.520;19.186;2022-10-16T00:13:33;100384.13;;;14.39;72.29
49102;BME280;34913;47.520;19.186;2022-10-16T00:16:00;100383.38;;;14.37;72.03
49102;BME280;34913;47.520;19.186;2022-10-16T00:18:27;100389.72;;;14.36;72.23
49102;BME280;34913;47.520;19.186;2022-10-16T00:20:54;100392.38;;;14.36;71.87
49102;BME280;34913;47.520;19.186;2022-10-16T00:23:20;100396.19;;;14.34;71.93
49102;BME280;34913;47.520;19.186;2022-10-16T00:25:57;100391.41;;;14.28;72.04
49102;BME280;34913;47.520;19.186;2022-10-16T00:28:23;100397.75;;;14.27;72.02
49102;BME280;34913;47.520;19.186;2022-10-16T00:30:49;100398.56;;;14.27;71.89
49102;BME280;34913;47.520;19.186;2022-10-16T00:33:14;100402.94;;;14.28;71.87
49102;BME280;34913;47.520;19.186;2022-10-16T00:35:40;100404.22;;;14.24;71.29
49102;BME280;34913;47.520;19.186;2022-10-16T00:38:05;100400.56;;;14.25;71.45
49102;BME280;34913;47.520;19.186;2022-10-16T00:40:31;100394.78;;;14.20;71.97
49102;BME280;34913;47.520;19.186;2022-10-16T00:42:57;100408.84;;;14.22;71.71
49102;BME280;34913;47.520;19.186;2022-10-16T00:45:22;100403.50;;;14.22;71.91
49102;BME280;34913;47.520;19.186;2022-10-16T00:47:49;100407.88;;;14.23;71.77
49102;BME280;34913;47.520;19.186;2022-10-16T00:50:18;100417.56;;;14.24;71.41
49102;BME280;34913;47.520;19.186;2022-10-16T00:52:50;100411.38;;;14.23;71.90
49102;BME280;34913;47.520;19.186;2022-10-16T00:55:17;100404.75;;;14.18;71.87
49102;BME280;34913;47.520;19.186;2022-10-16T00:57:43;100411.78;;;14.19;71.70
49102;BME280;34913;47.520;19.186;2022-10-16T01:00:14;100418.94;;;14.18;71.96
49102;BME280;34913;47.520;19.186;2022-10-16T01:02:41;100420.09;;;14.16;71.19
49102;BME280;34913;47.520;19.186;2022-10-16T01:05:06;100414.59;;;14.17;70.90
49102;BME280;34913;47.520;19.186;2022-10-16T01:10:51;100407.28;;;14.10;70.91
49102;BME280;34913;47.520;19.186;2022-10-16T01:13:30;100414.03;;;14.14;70.33
49102;BME280;34913;47.520;19.186;2022-10-16T01:16:15;100409.56;;;14.14;70.21
49102;BME280;34913;47.520;19.186;2022-10-16T01:18:44;100415.84;;;14.13;70.20
49102;BME280;34913;47.520;19.186;2022-10-16T01:21:22;100420.50;;;14.11;70.64
49102;BME280;34913;47.520;19.186;2022-10-16T01:24:19;100418.94;;;14.09;70.12
49102;BME280;34913;47.520;19.186;2022-10-16T01:29:33;100425.41;;;14.06;70.57
49102;BME280;34913;47.520;19.186;2022-10-16T01:32:05;100429.03;;;14.05;70.38
49102;BME280;34913;47.520;19.186;2022-10-16T01:40:06;100436.19;;;13.95;70.40
49102;BME280;34913;47.520;19.186;2022-10-16T01:42:40;100432.13;;;13.91;70.87
49102;BME280;34913;47.520;19.186;2022-10-16T01:45:08;100437.72;;;13.88;71.53
49102;BME280;34913;47.520;19.186;2022-10-16T01:47:37;100447.56;;;13.87;70.89
49102;BME280;34913;47.520;19.186;2022-10-16T01:50:04;100440.53;;;13.77;70.74
49102;BME280;34913;47.520;19.186;2022-10-16T01:52:32;100441.91;;;13.71;71.55
49102;BME280;34913;47.520;19.186;2022-10-16T01:55:00;100447.38;;;13.69;71.61
49102;BME280;34913;47.520;19.186;2022-10-16T01:57:28;100452.00;;;13.67;71.59
49102;BME280;34913;47.520;19.186;2022-10-16T02:00:00;100457.19;;;13.59;72.53
49102;BME280;34913;47.520;19.186;2022-10-16T02:02:28;100441.84;;;13.52;72.87
49102;BME280;34913;47.520;19.186;2022-10-16T02:05:06;100457.56;;;13.55;72.81
49102;BME280;34913;47.520;19.186;2022-10-16T02:07:34;100455.00;;;13.44;73.96
49102;BME280;34913;47.520;19.186;2022-10-16T02:10:00;100452.72;;;13.39;73.66
49102;BME280;34913;47.520;19.186;2022-10-16T02:12:31;100459.00;;;13.28;73.91
49102;BME280;34913;47.520;19.186;2022-10-16T02:14:58;100460.66;;;13.20;74.15
49102;BME280;34913;47.520;19.186;2022-10-16T02:17:24;100466.00;;;13.08;74.60
49102;BME280;34913;47.520;19.186;2022-10-16T02:19:52;100467.66;;;13.00;73.86
49102;BME280;34913;47.520;19.186;2022-10-16T02:22:27;100464.66;;;12.93;74.81
49102;BME280;34913;47.520;19.186;2022-10-16T02:30:39;100461.59;;;12.77;75.46
49102;BME280;34913;47.520;19.186;2022-10-16T02:33:10;100468.81;;;12.65;77.26
49102;BME280;34913;47.520;19.186;2022-10-16T02:35:37;100466.19;;;12.54;76.87
49102;BME280;34913;47.520;19.186;2022-10-16T02:38:04;100471.91;;;12.49;77.53
49102;BME280;34913;47.520;19.186;2022-10-16T02:40:30;100475.53;;;12.48;77.07
49102;BME280;34913;47.520;19.186;2022-10-16T02:42:56;100476.75;;;12.44;77.46
49102;BME280;34913;47.520;19.186;2022-10-16T02:45:24;100468.19;;;12.41;77.63
49102;BME280;34913;47.520;19.186;2022-10-16T02:47:49;100471.72;;;12.30;77.39
49102;BME280;34913;47.520;19.186;2022-10-16T02:50:15;100470.75;;;12.31;77.48
49102;BME280;34913;47.520;19.186;2022-10-16T02:52:41;100473.94;;;12.25;77.49
49102;BME280;34913;47.520;19.186;2022-10-16T02:55:06;100470.53;;;12.23;76.69
49102;BME280;34913;47.520;19.186;2022-10-16T02:57:32;100469.94;;;12.19;77.78
49102;BME280;34913;47.520;19.186;2022-10-16T02:59:58;100480.72;;;12.18;77.81
49102;BME280;34913;47.520;19.186;2022-10-16T03:02:24;100465.53;;;12.09;77.47
49102;BME280;34913;47.520;19.186;2022-10-16T03:04:49;100476.88;;;12.11;77.83
49102;BME280;34913;47.520;19.186;2022-10-16T03:07:14;100475.81;;;12.02;77.42
49102;BME280;34913;47.520;19.186;2022-10-16T03:09:40;100465.31;;;11.89;77.86
49102;BME280;34913;47.520;19.186;2022-10-16T03:12:05;100478.47;;;11.91;78.39
49102;BME280;34913;47.520;19.186;2022-10-16T03:14:31;100488.25;;;11.90;78.40
49102;BME280;34913;47.520;19.186;2022-10-16T03:16:57;100485.72;;;11.78;78.21
49102;BME280;34913;47.520;19.186;2022-10-16T03:19:22;100495.88;;;11.72;78.75
49102;BME280;34913;47.520;19.186;2022-10-16T03:21:48;100493.09;;;11.63;78.71
49102;BME280;34913;47.520;19.186;2022-10-16T03:24:13;100492.38;;;11.50;79.41
49102;BME280;34913;47.520;19.186;2022-10-16T03:26:39;100501.78;;;11.31;79.20
49102;BME280;34913;47.520;19.186;2022-10-16T03:29:04;100499.94;;;11.21;81.09
49102;BME280;34913;47.520;19.186;2022-10-16T03:31:30;100496.19;;;11.12;81.00
49102;BME280;34913;47.520;19.186;2022-10-16T03:33:56;100505.25;;;11.21;81.42
49102;BME280;34913;47.520;19.186;2022-10-16T03:36:21;100501.75;;;11.20;81.24
49102;BME280;34913;47.520;19.186;2022-10-16T03:38:46;100510.22;;;11.25;80.83
49102;BME280;34913;47.520;19.186;2022-10-16T03:41:12;100515.06;;;11.31;80.06
49102;BME280;34913;47.520;19.186;2022-10-16T03:43:38;100514.44;;;11.28;80.10
49102;BME280;34913;47.520;19.186;2022-10-16T03:46:03;100519.75;;;11.28;80.58
49102;BME280;34913;47.520;19.186;2022-10-16T03:48:29;100520.00;;;11.25;80.72
49102;BME280;34913;47.520;19.186;2022-10-16T03:50:54;100511.31;;;11.23;80.62
49102;BME280;34913;47.520;19.186;2022-10-16T03:53:20;100515.78;;;11.22;79.72
49102;BME280;34913;47.520;19.186;2022-10-16T03:55:45;100519.75;;;11.28;79.90
49102;BME280;34913;47.520;19.186;2022-10-16T03:58:11;100526.91;;;11.27;80.14
49102;BME280;34913;47.520;19.186;2022-10-16T04:00:43;100526.06;;;11.27;80.12
49102;BME280;34913;47.520;19.186;2022-10-16T04:03:09;100530.13;;;11.19;80.37
49102;BME280;34913;47.520;19.186;2022-10-16T04:05:35;100523.84;;;11.21;80.56
49102;BME280;34913;47.520;19.186;2022-10-16T04:08:00;100524.44;;;11.13;80.66
49102;BME280;34913;47.520;19.186;2022-10-16T04:10:26;100524.94;;;11.07;80.81
49102;BME280;34913;47.520;19.186;2022-10-16T04:12:51;100528.91;;;11.01;81.14
49102;BME280;34913;47.520;19.186;2022-10-16T04:15:19;100527.81;;;11.04;81.40
49102;BME280;34913;47.520;19.186;2022-10-16T04:17:45;100527.66;;;10.94;81.54
49102;BME280;34913;47.520;19.186;2022-10-16T04:20:10;100527.16;;;10.89;81.52
49102;BME280;34913;47.520;19.186;2022-10-16T04:22:36;100530.06;;;10.86;81.99
49102;BME280;34913;47.520;19.186;2022-10-16T04:25:01;100522.66;;;10.78;81.43
49102;BME280;34913;47.520;19.186;2022-10-16T04:27:27;100534.97;;;10.79;82.04
49102;BME280;34913;47.520;19.186;2022-10-16T04:29:53;100533.56;;;10.86;81.51
49102;BME280;34913;47.520;19.186;2022-10-16T04:32:18;100528.81;;;10.79;81.95
49102;BME280;34913;47.520;19.186;2022-10-16T04:34:44;100528.44;;;10.72;81.86
49102;BME280;34913;47.520;19.186;2022-10-16T04:37:09;100530.53;;;10.56;81.71
49102;BME280;34913;47.520;19.186;2022-10-16T04:39:35;100527.31;;;10.40;82.82
49102;BME280;34913;47.520;19.186;2022-10-16T04:42:00;100534.75;;;10.34;83.50
49102;BME280;34913;47.520;19.186;2022-10-16T04:44:25;100544.19;;;10.39;82.91
49102;BME280;34913;47.520;19.186;2022-10-16T04:46:51;100546.16;;;10.24;82.96
49102;BME280;34913;47.520;19.186;2022-10-16T04:49:16;100546.34;;;10.21;83.83
49102;BME280;34913;47.520;19.186;2022-10-16T04:51:42;100538.94;;;10.13;83.74
49102;BME280;34913;47.520;19.186;2022-10-16T04:54:09;100556.03;;;10.09;83.71
49102;BME280;34913;47.520;19.186;2022-10-16T04:56:34;100551.38;;;10.00;84.15
49102;BME280;34913;47.520;19.186;2022-10-16T04:59:05;100536.91;;;9.80;84.84
49102;BME280;34913;47.520;19.186;2022-10-16T05:01:31;100567.41;;;9.86;84.89
49102;BME280;34913;47.520;19.186;2022-10-16T05:03:56;100563.50;;;9.78;85.10
49102;BME280;34913;47.520;19.186;2022-10-16T05:06:21;100567.75;;;9.68;86.08
49102;BME280;34913;47.520;19.186;2022-10-16T05:08:47;100570.00;;;9.62;87.20
49102;BME280;34913;47.520;19.186;2022-10-16T05:11:12;100572.75;;;9.60;87.54
49102;BME280;34913;47.520;19.186;2022-10-16T05:13:37;100566.91;;;9.68;87.82
49102;BME280;34913;47.520;19.186;2022-10-16T05:16:03;100567.34;;;9.74;87.39
49102;BME280;34913;47.520;19.186;2022-10-16T05:18:28;100567.00;;;9.79;86.64
49102;BME280;34913;47.520;19.186;2022-10-16T05:20:54;100572.72;;;9.86;86.71
49102;BME280;34913;47.520;19.186;2022-10-16T05:23:19;100568.28;;;9.86;86.67
49102;BME280;34913;47.520;19.186;2022-10-16T05:25:55;100575.25;;;10.00;85.36
49102;BME280;34913;47.520;19.186;2022-10-16T05:28:23;100577.25;;;10.09;85.05
49102;BME280;34913;47.520;19.186;2022-10-16T05:30:49;100575.97;;;10.15;84.59
49102;BME280;34913;47.520;19.186;2022-10-16T05:33:14;100580.53;;;10.25;84.63
49102;BME280;34913;47.520;19.186;2022-10-16T05:35:40;100586.47;;;10.29;83.33
49102;BME280;34913;47.520;19.186;2022-10-16T05:38:05;100593.25;;;10.33;81.98
49102;BME280;34913;47.520;19.186;2022-10-16T05:40:31;100590.47;;;10.34;82.22
49102;BME280;34913;47.520;19.186;2022-10-16T05:42:56;100597.78;;;10.44;82.53
49102;BME280;34913;47.520;19.186;2022-10-16T05:45:22;100594.66;;;10.50;81.91
49102;BME280;34913;47.520;19.186;2022-10-16T05:47:47;100594.22;;;10.56;81.65
49102;BME280;34913;47.520;19.186;2022-10-16T05:50:13;100599.94;;;10.62;81.31
49102;BME280;34913;47.520;19.186;2022-10-16T05:52:38;100595.25;;;10.66;80.96
49102;BME280;34913;47.520;19.186;2022-10-16T05:55:04;100600.22;;;10.71;81.07
49102;BME280;34913;47.520;19.186;2022-10-16T05:57:29;100606.06;;;10.76;81.21
49102;BME280;34913;47.520;19.186;2022-10-16T05:59:55;100604.84;;;10.80;80.69
49102;BME280;34913;47.520;19.186;2022-10-16T06:02:20;100601.47;;;10.78;80.05
49102;BME280;34913;47.520;19.186;2022-10-16T06:04:46;100604.28;;;10.87;79.43
49102;BME280;34913;47.520;19.186;2022-10-16T06:07:11;100613.63;;;10.93;80.00
49102;BME280;34913;47.520;19.186;2022-10-16T06:09:37;100607.84;;;10.99;79.48
49102;BME280;34913;47.520;19.186;2022-10-16T06:12:02;100614.63;;;11.03;79.33
49102;BME280;34913;47.520;19.186;2022-10-16T06:14:27;100616.09;;;11.07;79.02
49102;BME280;34913;47.520;19.186;2022-10-16T06:16:53;100617.09;;;11.17;79.07
49102;BME280;34913;47.520;19.186;2022-10-16T06:19:18;100620.75;;;11.28;78.39
49102;BME280;34913;47.520;19.186;2022-10-16T06:21:44;100619.72;;;11.41;77.49
49102;BME280;34913;47.520;19.186;2022-10-16T06:24:10;100619.50;;;11.56;76.93
49102;BME280;34913;47.520;19.186;2022-10-16T06:26:35;100626.06;;;11.74;75.95
49102;BME280;34913;47.520;19.186;2022-10-16T06:29:01;100624.06;;;11.89;75.59
49102;BME280;34913;47.520;19.186;2022-10-16T06:31:27;100628.88;;;12.06;74.84
49102;BME280;34913;47.520;19.186;2022-10-16T06:33:56;100626.72;;;12.22;73.74
49102;BME280;34913;47.520;19.186;2022-10-16T06:36:23;100630.94;;;12.36;72.99
49102;BME280;34913;47.520;19.186;2022-10-16T06:38:48;100636.38;;;12.46;72.72
49102;BME280;34913;47.520;19.186;2022-10-16T06:41:17;100647.34;;;12.64;72.20
49102;BME280;34913;47.520;19.186;2022-10-16T06:43:43;100656.75;;;12.79;72.52
49102;BME280;34913;47.520;19.186;2022-10-16T06:46:12;100652.63;;;12.97;71.44
49102;BME280;34913;47.520;19.186;2022-10-16T06:48:38;100658.50;;;13.12;70.70
49102;BME280;34913;47.520;19.186;2022-10-16T06:51:10;100653.34;;;13.31;70.22
49102;BME280;34913;47.520;19.186;2022-10-16T06:53:40;100661.25;;;13.54;68.26
49102;BME280;34913;47.520;19.186;2022-10-16T06:56:14;100662.41;;;13.82;68.08
49102;BME280;34913;47.520;19.186;2022-10-16T06:58:40;100657.88;;;14.03;66.84
49102;BME280;34913;47.520;19.186;2022-10-16T07:01:07;100664.56;;;14.18;64.53
49102;BME280;34913;47.520;19.186;2022-10-16T07:03:33;100671.81;;;14.37;64.82
49102;BME280;34913;47.520;19.186;2022-10-16T07:06:02;100668.94;;;14.50;64.46
49102;BME280;34913;47.520;19.186;2022-10-16T07:08:40;100684.00;;;14.61;63.49
49102;BME280;34913;47.520;19.186;2022-10-16T07:11:12;100683.91;;;14.72;63.44
49102;BME280;34913;47.520;19.186;2022-10-16T07:13:39;100685.47;;;14.84;63.07
49102;BME280;34913;47.520;19.186;2022-10-16T07:16:13;100683.81;;;14.93;62.28
49102;BME280;34913;47.520;19.186;2022-10-16T07:18:39;100688.34;;;15.02;61.63
49102;BME280;34913;47.520;19.186;2022-10-16T07:21:14;100697.78;;;15.06;61.23
49102;BME280;34913;47.520;19.186;2022-10-16T07:23:40;100695.00;;;15.17;61.57
49102;BME280;34913;47.520;19.186;2022-10-16T07:26:06;100694.44;;;15.33;60.81
49102;BME280;34913;47.520;19.186;2022-10-16T07:28:32;100697.50;;;15.38;61.02
49102;BME280;34913;47.520;19.186;2022-10-16T07:31:06;100706.13;;;15.51;60.31
49102;BME280;34913;47.520;19.186;2022-10-16T07:33:32;100703.56;;;15.59;60.27
49102;BME280;34913;47.520;19.186;2022-10-16T07:35:58;100703.75;;;15.68;59.85
49102;BME280;34913;47.520;19.186;2022-10-16T07:38:23;100707.38;;;15.76;59.62
49102;BME280;34913;47.520;19.186;2022-10-16T07:40:59;100716.97;;;15.79;58.12
49102;BME280;34913;47.520;19.186;2022-10-16T07:43:26;100729.38;;;15.89;58.50
49102;BME280;34913;47.520;19.186;2022-10-16T07:45:51;100726.09;;;15.96;57.96
49102;BME280;34913;47.520;19.186;2022-10-16T07:48:18;100735.53;;;16.00;58.05
49102;BME280;34913;47.520;19.186;2022-10-16T07:50:44;100734.41;;;15.93;58.51
49102;BME280;34913;47.520;19.186;2022-10-16T07:53:11;100738.19;;;16.09;57.80
49102;BME280;34913;47.520;19.186;2022-10-16T07:55:36;100746.19;;;16.19;58.14
49102;BME280;34913;47.520;19.186;2022-10-16T07:58:02;100742.69;;;16.28;57.54
49102;BME280;34913;47.520;19.186;2022-10-16T08:00:27;100729.41;;;16.36;57.02
49102;BME280;34913;47.520;19.186;2022-10-16T08:02:53;100732.72;;;16.48;56.49
49102;BME280;34913;47.520;19.186;2022-10-16T08:05:18;100729.09;;;16.39;56.67
49102;BME280;34913;47.520;19.186;2022-10-16T08:07:50;100733.53;;;16.21;58.07
49102;BME280;34913;47.520;19.186;2022-10-16T08:10:17;100728.06;;;16.13;58.92
49102;BME280;34913;47.520;19.186;2022-10-16T08:12:43;100727.00;;;16.33;58.59
49102;BME280;34913;47.520;19.186;2022-10-16T08:15:09;100729.03;;;16.49;58.17
49102;BME280;34913;47.520;19.186;2022-10-16T08:17:34;100717.53;;;16.39;57.03
49102;BME280;34913;47.520;19.186;2022-10-16T08:20:00;100735.13;;;16.51;58.45
49102;BME280;34913;47.520;19.186;2022-10-16T08:22:26;100737.94;;;16.50;57.19
49102;BME280;34913;47.520;19.186;2022-10-16T08:24:52;100736.31;;;16.29;56.79
49102;BME280;34913;47.520;19.186;2022-10-16T08:27:17;100745.69;;;16.53;57.03
49102;BME280;34913;47.520;19.186;2022-10-16T08:29:43;100755.34;;;16.73;57.89
49102;BME280;34913;47.520;19.186;2022-10-16T08:32:08;100761.06;;;16.88;55.67
49102;BME280;34913;47.520;19.186;2022-10-16T08:34:33;100759.81;;;16.92;56.44
49102;BME280;34913;47.520;19.186;2022-10-16T08:36:59;100764.84;;;16.95;56.84
49102;BME280;34913;47.520;19.186;2022-10-16T08:39:24;100758.66;;;16.94;56.56
49102;BME280;34913;47.520;19.186;2022-10-16T08:47:31;100757.22;;;17.00;54.79
49102;BME280;34913;47.520;19.186;2022-10-16T08:50:08;100763.84;;;16.96;55.34
49102;BME280;34913;47.520;19.186;2022-10-16T08:52:38;100761.47;;;17.20;55.41
49102;BME280;34913;47.520;19.186;2022-10-16T08:55:04;100772.84;;;17.32;54.46
49102;BME280;34913;47.520;19.186;2022-10-16T08:57:30;100767.47;;;17.50;54.59
49102;BME280;34913;47.520;19.186;2022-10-16T09:00:00;100769.78;;;17.63;55.21
49102;BME280;34913;47.520;19.186;2022-10-16T09:02:32;100763.75;;;17.78;53.44
49102;BME280;34913;47.520;19.186;2022-10-16T09:07:46;100763.34;;;18.09;52.85
49102;BME280;34913;47.520;19.186;2022-10-16T09:10:33;100767.28;;;18.23;51.48
49102;BME280;34913;47.520;19.186;2022-10-16T09:13:23;100760.44;;;18.28;51.11
49102;BME280;34913;47.520;19.186;2022-10-16T09:21:18;100784.91;;;17.99;52.48
49102;BME280;34913;47.520;19.186;2022-10-16T09:23:45;100775.47;;;17.95;53.07
49102;BME280;34913;47.520;19.186;2022-10-16T09:26:14;100768.38;;;18.12;53.39
49102;BME280;34913;47.520;19.186;2022-10-16T09:28:41;100759.88;;;18.42;51.64
49102;BME280;34913;47.520;19.186;2022-10-16T09:31:27;100769.16;;;18.56;51.50
49102;BME280;34913;47.520;19.186;2022-10-16T09:33:55;100759.75;;;18.52;51.02
49102;BME280;34913;47.520;19.186;2022-10-16T09:36:25;100759.44;;;18.63;52.34
49102;BME280;34913;47.520;19.186;2022-10-16T09:39:03;100762.94;;;18.56;52.79
49102;BME280;34913;47.520;19.186;2022-10-16T09:41:29;100765.91;;;18.45;52.34
49102;BME280;34913;47.520;19.186;2022-10-16T09:43:57;100752.53;;;18.27;52.58
49102;BME280;34913;47.520;19.186;2022-10-16T09:46:31;100756.38;;;18.50;53.43
49102;BME280;34913;47.520;19.186;2022-10-16T09:49:02;100763.88;;;18.99;50.56
49102;BME280;34913;47.520;19.186;2022-10-16T09:51:30;100770.91;;;18.91;50.44
49102;BME280;34913;47.520;19.186;2022-10-16T09:54:02;100767.03;;;18.94;51.42
49102;BME280;34913;47.520;19.186;2022-10-16T09:56:30;100776.50;;;19.06;51.29
49102;BME280;34913;47.520;19.186;2022-10-16T09:59:00;100777.22;;;19.24;51.09
49102;BME280;34913;47.520;19.186;2022-10-16T10:01:37;100780.25;;;19.21;50.35
49102;BME280;34913;47.520;19.186;2022-10-16T10:04:04;100779.91;;;19.24;50.26
49102;BME280;34913;47.520;19.186;2022-10-16T10:06:41;100789.09;;;18.98;51.56
49102;BME280;34913;47.520;19.186;2022-10-16T10:11:59;100779.75;;;19.26;51.51
49102;BME280;34913;47.520;19.186;2022-10-16T10:14:39;100783.16;;;19.36;50.57
49102;BME280;34913;47.520;19.186;2022-10-16T10:19:47;100775.81;;;19.63;48.63
49102;BME280;34913;47.520;19.186;2022-10-16T10:27:40;100759.28;;;19.49;49.85
49102;BME280;34913;47.520;19.186;2022-10-16T10:49:35;100756.13;;;20.19;49.10
49102;BME280;34913;47.520;19.186;2022-10-16T11:03:45;100751.72;;;20.34;49.11
49102;BME280;34913;47.520;19.186;2022-10-16T11:09:17;100752.38;;;20.36;47.97
49102;BME280;34913;47.520;19.186;2022-10-16T11:11:53;100755.91;;;20.53;45.70
49102;BME280;34913;47.520;19.186;2022-10-16T11:14:46;100746.13;;;20.52;46.90
49102;BME280;34913;47.520;19.186;2022-10-16T11:17:18;100744.97;;;20.55;47.02
49102;BME280;34913;47.520;19.186;2022-10-16T11:19:48;100747.81;;;20.53;46.52
49102;BME280;34913;47.520;19.186;2022-10-16T11:27:44;100737.63;;;20.80;46.94
49102;BME280;34913;47.520;19.186;2022-10-16T11:30:20;100724.84;;;20.66;47.08
49102;BME280;34913;47.520;19.186;2022-10-16T11:35:23;100735.81;;;21.03;45.94
49102;BME280;34913;47.520;19.186;2022-10-16T11:37:49;100724.34;;;21.09;45.99
49102;BME280;34913;47.520;19.186;2022-10-16T11:40:30;100728.31;;;20.82;45.90
49102;BME280;34913;47.520;19.186;2022-10-16T11:43:06;100730.16;;;20.90;45.29
49102;BME280;34913;47.520;19.186;2022-10-16T11:46:12;100724.16;;;21.11;45.45
49102;BME280;34913;47.520;19.186;2022-10-16T11:48:58;100725.06;;;21.26;45.00
49102;BME280;34913;47.520;19.186;2022-10-16T11:51:37;100719.72;;;20.87;45.26
49102;BME280;34913;47.520;19.186;2022-10-16T11:54:32;100727.03;;;21.09;46.66
49102;BME280;34913;47.520;19.186;2022-10-16T11:57:10;100728.78;;;21.25;45.20
49102;BME280;34913;47.520;19.186;2022-10-16T12:02:53;100722.34;;;21.34;44.04
49102;BME280;34913;47.520;19.186;2022-10-16T12:08:11;100722.47;;;21.10;45.65
49102;BME280;34913;47.520;19.186;2022-10-16T12:10:39;100722.03;;;21.29;45.54
49102;BME280;34913;47.520;19.186;2022-10-16T12:18:36;100726.06;;;21.56;44.92
49102;BME280;34913;47.520;19.186;2022-10-16T12:21:02;100721.00;;;21.30;44.54
49102;BME280;34913;47.520;19.186;2022-10-16T12:23:36;100719.81;;;21.25;44.88
49102;BME280;34913;47.520;19.186;2022-10-16T12:26:02;100707.59;;;21.14;46.46
49102;BME280;34913;47.520;19.186;2022-10-16T12:28:32;100713.78;;;20.91;45.95
49102;BME280;34913;47.520;19.186;2022-10-16T12:30:58;100715.03;;;20.81;44.65
49102;BME280;34913;47.520;19.186;2022-10-16T12:33:30;100700.28;;;20.91;44.54
49102;BME280;34913;47.520;19.186;2022-10-16T12:35:57;100715.63;;;20.91;45.74
49102;BME280;34913;47.520;19.186;2022-10-16T12:38:30;100703.06;;;21.06;44.37
49102;BME280;34913;47.520;19.186;2022-10-16T12:41:06;100709.06;;;21.16;44.22
49102;BME280;34913;47.520;19.186;2022-10-16T12:43:41;100706.03;;;21.28;45.37
49102;BME280;34913;47.520;19.186;2022-10-16T12:48:41;100706.03;;;21.19;44.74
49102;BME280;34913;47.520;19.186;2022-10-16T12:54:02;100710.22;;;21.22;43.12
49102;BME280;34913;47.520;19.186;2022-10-16T13:06:46;100726.44;;;21.22;44.38
49102;BME280;34913;47.520;19.186;2022-10-16T13:20:16;100728.53;;;21.12;45.91
49102;BME280;34913;47.520;19.186;2022-10-16T13:23:13;100724.34;;;21.09;45.88
49102;BME280;34913;47.520;19.186;2022-10-16T13:28:17;100718.16;;;20.92;43.96
49102;BME280;34913;47.520;19.186;2022-10-16T13:30:52;100721.22;;;20.89;45.27
49102;BME280;34913;47.520;19.186;2022-10-16T13:33:39;100729.72;;;20.78;45.14
49102;BME280;34913;47.520;19.186;2022-10-16T13:36:06;100720.97;;;20.68;45.13
49102;BME280;34913;47.520;19.186;2022-10-16T13:38:36;100733.47;;;20.61;44.37
49102;BME280;34913;47.520;19.186;2022-10-16T13:41:04;100728.44;;;20.58;45.74
49102;BME280;34913;47.520;19.186;2022-10-16T13:43:45;100730.97;;;20.51;45.80
49102;BME280;34913;47.520;19.186;2022-10-16T13:46:19;100729.66;;;20.47;46.47
49102;BME280;34913;47.520;19.186;2022-10-16T13:48:56;100737.06;;;20.45;44.47
49102;BME280;34913;47.520;19.186;2022-10-16T13:51:22;100736.22;;;20.45;45.90
49102;BME280;34913;47.520;19.186;2022-10-16T13:53:48;100737.38;;;20.42;45.07
49102;BME280;34913;47.520;19.186;2022-10-16T13:56:21;100735.72;;;20.33;45.14
49102;BME280;34913;47.520;19.186;2022-10-16T13:59:05;100737.75;;;20.23;44.51
49102;BME280;34913;47.520;19.186;2022-10-16T14:01:42;100745.16;;;20.21;44.77
49102;BME280;34913;47.520;19.186;2022-10-16T14:04:10;100739.59;;;20.14;45.27
49102;BME280;34913;47.520;19.186;2022-10-16T14:06:42;100735.41;;;20.12;45.30
49102;BME280;34913;47.520;19.186;2022-10-16T14:09:23;100737.63;;;20.08;48.00
49102;BME280;34913;47.520;19.186;2022-10-16T14:12:02;100734.94;;;20.00;48.74
49102;BME280;34913;47.520;19.186;2022-10-16T14:14:38;100736.59;;;20.01;48.31
49102;BME280;34913;47.520;19.186;2022-10-16T14:17:05;100734.59;;;19.87;48.84
49102;BME280;34913;47.520;19.186;2022-10-16T14:19:31;100730.56;;;19.91;49.95
49102;BME280;34913;47.520;19.186;2022-10-16T14:21:58;100728.84;;;19.82;47.68
49102;BME280;34913;47.520;19.186;2022-10-16T14:24:42;100736.28;;;19.79;48.06
49102;BME280;34913;47.520;19.186;2022-10-16T14:27:34;100731.72;;;19.80;51.07
49102;BME280;34913;47.520;19.186;2022-10-16T14:30:21;100739.63;;;19.82;50.76
49102;BME280;34913;47.520;19.186;2022-10-16T14:33:00;100737.28;;;19.78;51.74
49102;BME280;34913;47.520;19.186;2022-10-16T14:35:35;100737.78;;;19.82;52.99
49102;BME280;34913;47.520;19.186;2022-10-16T14:38:03;100730.88;;;19.79;51.43
49102;BME280;34913;47.520;19.186;2022-10-16T14:40:31;100737.13;;;19.72;48.47
49102;BME280;34913;47.520;19.186;2022-10-16T14:42:58;100741.84;;;19.62;46.90
49102;BME280;34913;47.520;19.186;2022-10-16T14:45:30;100745.97;;;19.48;47.06
49102;BME280;34913;47.520;19.186;2022-10-16T14:47:56;100750.69;;;19.46;48.18
49102;BME280;34913;47.520;19.186;2022-10-16T14:50:22;100752.00;;;19.34;48.87
49102;BME280;34913;47.520;19.186;2022-10-16T14:52:48;100747.31;;;19.28;48.40
49102;BME280;34913;47.520;19.186;2022-10-16T14:55:14;100750.47;;;19.23;48.35
49102;BME280;34913;47.520;19.186;2022-10-16T14:57:39;100744.91;;;19.16;49.82